»·PEaware :: N369B KSNA-KSNA

N369B :: KSNA-KSNA

FLIGHT INFORMATION

Flight Status: Arrived
Operator: Privately registered:
United States
More flights under this callsign
Pilot: Danny S. (32185)
Aircraft: Unknown
(B58)
More flights by this aircraft type
Origin: KSNA John Wayne-Orange Co
United States
Destination: KSNA John Wayne-Orange Co
United States
More flights between these airports :: More routes between these airports
Route: +SLI
File this flight plan on PilotEdge
Remarks:
Altitude:
(Current/Filed)
3,000ft
Speed:
(Current/Filed)
170kts
Departed: 22-Nov-20 05:57 PM
Arrived: 22-Nov-20 06:30 PM
Distance/Time
Traveled:
0nm/0:33
Distance/Time
To Go:
Arrived

Flight Plot

Page will automatically refresh every two minutes.


Map Options




Map Legend


Flown Route
Filed Route
Departure Airport
Arrival Airport
Navaid (VOR, NDB)
Fix

Horizontal Profiles

Position Reports

Time Latitude Longitude Heading Altitude Ground
Speed
22-Nov-20 17:41 0.000408 0.013975 0 3ft 0kts
22-Nov-20 17:42 0.000408 0.013975 0 3ft 0kts
22-Nov-20 17:43 33.680089 -117.861781 108 47ft 0kts
22-Nov-20 17:44 33.680088 -117.861776 108 43ft 0kts
22-Nov-20 17:45 33.680088 -117.861776 108 43ft 0kts
22-Nov-20 17:46 33.680088 -117.861776 108 43ft 0kts
22-Nov-20 17:47 33.680088 -117.861776 108 43ft 0kts
22-Nov-20 17:48 33.680088 -117.861776 108 43ft 0kts
22-Nov-20 17:49 33.680088 -117.861776 108 43ft 0kts
22-Nov-20 17:50 33.680088 -117.861776 108 43ft 0kts
22-Nov-20 17:51 33.680078 -117.861884 299 43ft 0kts
22-Nov-20 17:52 33.680095 -117.861921 298 43ft 6kts
22-Nov-20 17:53 33.680670 -117.863143 302 43ft 0kts
22-Nov-20 17:54 33.680671 -117.863144 301 43ft 0kts
22-Nov-20 17:55 33.680671 -117.863144 301 43ft 0kts
22-Nov-20 17:56 33.678222 -117.865419 209 51ft 76kts
22-Nov-20 17:57 33.655798 -117.894110 243 1519ft 124kts
22-Nov-20 17:58 33.637903 -117.931138 244 2131ft 158kts
22-Nov-20 17:59 33.619944 -117.978897 242 2127ft 160kts
22-Nov-20 18:00 33.613311 -118.024417 331 2232ft 155kts
22-Nov-20 18:01 33.654203 -118.018369 27 2887ft 163kts
22-Nov-20 18:02 33.694181 -117.989134 27 2990ft 173kts
22-Nov-20 18:03 33.734708 -117.959546 28 2991ft 161kts
22-Nov-20 18:04 33.772324 -117.931798 27 3001ft 157kts
22-Nov-20 18:05 33.809504 -117.904362 27 3000ft 157kts
22-Nov-20 18:06 33.846907 -117.876729 27 3002ft 158kts
22-Nov-20 18:07 33.884477 -117.849116 28 3000ft 158kts
22-Nov-20 18:08 33.922064 -117.821419 28 3001ft 158kts
22-Nov-20 18:09 33.958825 -117.794320 27 2995ft 152kts
22-Nov-20 18:10 33.982004 -117.759562 110 3002ft 156kts
22-Nov-20 18:11 33.966648 -117.710952 112 3002ft 156kts
22-Nov-20 18:12 33.950947 -117.662108 112 3004ft 157kts
22-Nov-20 18:13 33.935162 -117.613029 112 2998ft 157kts
22-Nov-20 18:14 33.919514 -117.564017 112 3001ft 157kts
22-Nov-20 18:15 33.889555 -117.539973 152 3004ft 151kts
22-Nov-20 18:16 33.904115 -117.518117 298 3010ft 135kts
22-Nov-20 18:17 33.901533 -117.562974 262 2992ft 135kts
22-Nov-20 18:18 33.896103 -117.607265 262 2995ft 134kts
22-Nov-20 18:19 33.890742 -117.651570 262 3004ft 133kts
22-Nov-20 18:20 33.885850 -117.690227 262 2988ft 108kts
22-Nov-20 18:21 33.868043 -117.718020 227 3009ft 110kts
22-Nov-20 18:22 33.845307 -117.743437 227 3010ft 112kts
22-Nov-20 18:23 33.821231 -117.774115 244 3015ft 138kts
22-Nov-20 18:24 33.787921 -117.798204 207 2452ft 159kts
22-Nov-20 18:25 33.755726 -117.818127 213 1564ft 105kts
22-Nov-20 18:26 33.729543 -117.834826 213 1130ft 123kts
22-Nov-20 18:27 33.707473 -117.848670 214 616ft 79kts
22-Nov-20 18:28 33.687192 -117.861673 215 245ft 80kts
22-Nov-20 18:29 33.675957 -117.869794 297 55ft 6kts
22-Nov-20 18:30 33.675962 -117.869807 297 55ft 0kts
22-Nov-20 18:31 33.674031 -117.871961 223 54ft 33kts

Navigation Log

Ident Type
Flight plan parsing failed, navigation log unavailable